Time;durP1;ratioP1;P1;durP2;ratioP2;P2;SDS_P1;SDS_P2;PMS_P1;PMS_P2;Temp;Humidity;BMP_temperature;BMP_pressure;BME280_temperature;BME280_humidity;BME280_pressure;Samples;Min_cycle;Max_cycle;Signal;HPM_P1;HPM_P2
2021/05/26 00:00:36;;;;;;;9.90;2.73;;;8.40;93.80;;;;;;5029407;28;20433;-77
2021/05/26 00:03:03;;;;;;;7.37;2.40;;;8.40;93.90;;;;;;5028980;28;20456;-78
2021/05/26 00:05:31;;;;;;;7.00;2.60;;;8.40;94.10;;;;;;5029336;28;20410;-78
2021/05/26 00:07:57;;;;;;;7.47;2.65;;;8.30;93.60;;;;;;5027129;28;20454;-77
2021/05/26 00:10:23;;;;;;;10.68;2.55;;;8.20;93.80;;;;;;5028642;28;20760;-78
2021/05/26 00:12:49;;;;;;;9.57;2.73;;;8.10;93.80;;;;;;5027673;28;20483;-77
2021/05/26 00:15:15;;;;;;;6.60;2.70;;;8.10;93.80;;;;;;5027637;28;20426;-77
2021/05/26 00:17:41;;;;;;;7.15;2.83;;;8.10;93.90;;;;;;5028768;28;20707;-77
2021/05/26 00:20:06;;;;;;;4.17;2.70;;;8.00;94.10;;;;;;5028134;28;20379;-77
2021/05/26 00:22:32;;;;;;;4.97;2.58;;;8.00;94.00;;;;;;5029021;28;20410;-77
2021/05/26 00:24:58;;;;;;;4.85;2.47;;;8.10;94.00;;;;;;5028638;28;20383;-77
2021/05/26 00:27:23;;;;;;;8.75;2.38;;;8.00;94.10;;;;;;5028734;28;20757;-77
2021/05/26 00:29:49;;;;;;;7.75;2.72;;;7.90;94.00;;;;;;5028207;28;20886;-76
2021/05/26 00:32:15;;;;;;;8.63;2.28;;;8.00;93.90;;;;;;5028781;28;20379;-77
2021/05/26 00:34:41;;;;;;;6.68;2.35;;;7.90;93.70;;;;;;5027155;28;20391;-77
2021/05/26 00:37:06;;;;;;;5.60;2.30;;;7.90;93.60;;;;;;5028438;28;20835;-77
2021/05/26 00:39:32;;;;;;;5.10;2.37;;;7.90;93.60;;;;;;5028412;28;20749;-78
2021/05/26 00:41:58;;;;;;;8.67;2.50;;;7.90;93.60;;;;;;5028970;28;20503;-77
2021/05/26 00:44:23;;;;;;;8.30;2.60;;;7.90;93.60;;;;;;5028314;28;20863;-77
2021/05/26 00:46:50;;;;;;;6.13;2.53;;;7.90;93.60;;;;;;5027872;28;20376;-77
2021/05/26 00:49:16;;;;;;;8.88;3.00;;;7.90;93.70;;;;;;5028809;28;20426;-76
2021/05/26 00:51:42;;;;;;;8.30;2.53;;;7.90;93.70;;;;;;5028275;28;20371;-77
2021/05/26 00:54:08;;;;;;;9.13;2.40;;;7.90;93.80;;;;;;5027027;28;20387;-77
2021/05/26 00:56:35;;;;;;;5.75;2.45;;;7.80;93.60;;;;;;5027812;28;20441;-77
2021/05/26 00:59:03;;;;;;;5.65;2.63;;;7.90;93.50;;;;;;5027706;28;20438;-76
2021/05/26 01:01:28;;;;;;;8.05;2.65;;;7.90;93.70;;;;;;5028074;28;20392;-77
2021/05/26 01:03:57;;;;;;;5.03;2.67;;;7.80;93.70;;;;;;5027028;28;20482;-77
2021/05/26 01:06:24;;;;;;;7.47;2.70;;;7.80;93.60;;;;;;5027848;28;20408;-76
2021/05/26 01:08:50;;;;;;;5.23;2.53;;;7.80;93.80;;;;;;5027810;28;20970;-76
2021/05/26 01:11:15;;;;;;;6.03;2.60;;;7.80;93.60;;;;;;5026680;28;20447;-76
2021/05/26 01:13:41;;;;;;;6.07;2.90;;;7.90;93.30;;;;;;5027718;28;20404;-78
2021/05/26 01:16:07;;;;;;;7.18;2.55;;;7.90;93.40;;;;;;5028092;28;20383;-75
2021/05/26 01:18:35;;;;;;;7.68;2.47;;;7.80;93.50;;;;;;5026078;28;20966;-76
2021/05/26 01:21:06;;;;;;;8.23;3.00;;;7.90;93.40;;;;;;5026617;28;20739;-76
2021/05/26 01:23:33;;;;;;;6.40;2.70;;;7.90;93.40;;;;;;5027797;28;20468;-77
2021/05/26 01:26:00;;;;;;;7.20;2.87;;;7.90;93.50;;;;;;5027778;28;20871;-77
2021/05/26 01:28:27;;;;;;;9.85;3.40;;;7.90;93.40;;;;;;5027305;28;20767;-76
2021/05/26 01:30:53;;;;;;;10.70;3.30;;;7.90;93.40;;;;;;5025897;28;20385;-76
2021/05/26 01:33:19;;;;;;;7.60;2.78;;;7.90;93.60;;;;;;5027396;28;20428;-76
2021/05/26 01:35:47;;;;;;;8.73;3.40;;;8.00;93.70;;;;;;5028096;28;20378;-76
2021/05/26 01:38:18;;;;;;;9.70;3.17;;;8.00;94.00;;;;;;5027099;28;20416;-76
2021/05/26 01:40:43;;;;;;;11.80;3.65;;;8.00;93.90;;;;;;5027147;28;20894;-77
2021/05/26 01:43:10;;;;;;;10.67;4.40;;;8.10;93.50;;;;;;5027712;28;20383;-76
2021/05/26 01:45:36;;;;;;;13.40;4.18;;;8.20;93.30;;;;;;5027455;28;20387;-76
2021/05/26 01:48:02;;;;;;;9.25;4.03;;;8.20;93.50;;;;;;5026006;28;20411;-76
2021/05/26 01:50:28;;;;;;;12.43;3.97;;;8.20;93.80;;;;;;5027413;28;20709;-76
2021/05/26 01:53:00;;;;;;;11.13;4.20;;;8.20;93.60;;;;;;5026287;28;20474;-76
2021/05/26 01:55:26;;;;;;;12.32;3.80;;;8.20;93.60;;;;;;5026324;28;20403;-76
2021/05/26 01:57:52;;;;;;;12.52;3.83;;;8.20;93.60;;;;;;5026162;28;20414;-76
2021/05/26 02:00:20;;;;;;;11.05;4.00;;;8.30;93.50;;;;;;5027010;28;20391;-76
2021/05/26 02:02:47;;;;;;;10.18;4.20;;;8.30;93.50;;;;;;5027416;28;20420;-76
2021/05/26 02:05:14;;;;;;;14.55;4.35;;;8.30;93.60;;;;;;5027100;28;20464;-76
2021/05/26 02:07:40;;;;;;;13.75;4.82;;;8.30;93.80;;;;;;5025434;28;20411;-75
2021/05/26 02:10:09;;;;;;;16.38;4.72;;;8.30;93.90;;;;;;5026212;28;20383;-76
2021/05/26 02:12:39;;;;;;;13.35;3.85;;;8.30;93.60;;;;;;5025981;28;20448;-76
2021/05/26 02:15:06;;;;;;;14.07;4.43;;;8.40;93.50;;;;;;5025889;28;20399;-76
2021/05/26 02:17:32;;;;;;;15.00;4.80;;;8.40;93.40;;;;;;5026896;28;20379;-76
2021/05/26 02:19:58;;;;;;;14.45;4.57;;;8.40;93.50;;;;;;5026285;28;20387;-76
2021/05/26 02:22:24;;;;;;;15.15;4.57;;;8.30;93.60;;;;;;5027249;28;20769;-76
2021/05/26 02:24:49;;;;;;;17.35;5.13;;;8.40;93.40;;;;;;5027751;28;20387;-76
2021/05/26 02:27:16;;;;;;;9.73;4.07;;;8.40;93.50;;;;;;5026285;28;20403;-78
2021/05/26 02:29:41;;;;;;;13.57;4.15;;;8.40;93.20;;;;;;5027394;28;20474;-76
2021/05/26 02:32:08;;;;;;;9.35;4.18;;;8.40;93.20;;;;;;5026799;28;20460;-76
2021/05/26 02:34:34;;;;;;;13.52;4.70;;;8.40;93.40;;;;;;5027013;28;20390;-76
2021/05/26 02:37:00;;;;;;;11.48;3.90;;;8.40;93.30;;;;;;5026923;28;20375;-76
2021/05/26 02:39:25;;;;;;;14.50;4.30;;;8.40;93.40;;;;;;5025442;28;20395;-76
2021/05/26 02:41:51;;;;;;;17.43;4.30;;;8.40;93.60;;;;;;5025614;28;20406;-77
2021/05/26 02:44:17;;;;;;;11.97;3.70;;;8.40;93.20;;;;;;5028572;28;20380;-75
2021/05/26 02:46:44;;;;;;;17.60;4.07;;;8.40;93.10;;;;;;5030074;28;20898;-76
2021/05/26 02:49:10;;;;;;;14.38;4.40;;;8.40;92.90;;;;;;5029408;28;20879;-76
2021/05/26 02:51:36;;;;;;;16.05;4.40;;;8.40;93.10;;;;;;5028992;28;20384;-76
2021/05/26 02:54:03;;;;;;;13.20;3.78;;;8.40;93.00;;;;;;5028924;28;20474;-76
2021/05/26 02:56:29;;;;;;;12.93;3.78;;;8.40;93.10;;;;;;5028820;28;20393;-77
2021/05/26 02:58:54;;;;;;;15.93;3.80;;;8.40;93.30;;;;;;5028666;28;20394;-77
2021/05/26 03:01:20;;;;;;;17.90;4.20;;;8.40;92.80;;;;;;5030046;28;20409;-76
2021/05/26 03:03:46;;;;;;;13.07;4.30;;;8.50;93.10;;;;;;5029661;28;20379;-75
2021/05/26 03:06:11;;;;;;;16.63;4.57;;;8.50;93.00;;;;;;5028824;28;20423;-76
2021/05/26 03:08:37;;;;;;;16.95;4.15;;;8.50;93.10;;;;;;5029282;28;20403;-76
2021/05/26 03:11:03;;;;;;;11.85;4.15;;;8.50;92.80;;;;;;5028466;28;20427;-76
2021/05/26 03:13:29;;;;;;;18.13;4.43;;;8.50;92.90;;;;;;5028244;28;20780;-76
2021/05/26 03:15:55;;;;;;;21.77;4.38;;;8.50;92.90;;;;;;5029696;28;20392;-75
2021/05/26 03:18:21;;;;;;;13.90;3.97;;;8.60;92.90;;;;;;5029864;28;20839;-75
2021/05/26 03:20:48;;;;;;;18.98;4.22;;;8.60;92.90;;;;;;5029514;28;20376;-76
2021/05/26 03:23:14;;;;;;;12.73;4.22;;;8.60;92.70;;;;;;5030239;28;20379;-75
2021/05/26 03:25:40;;;;;;;19.45;4.53;;;8.60;93.10;;;;;;5028317;28;20391;-76
2021/05/26 03:28:05;;;;;;;13.90;3.78;;;8.60;93.30;;;;;;5028093;28;20432;-76
2021/05/26 03:30:31;;;;;;;15.30;3.90;;;8.50;93.20;;;;;;5029418;28;20720;-76
2021/05/26 03:32:58;;;;;;;13.37;4.50;;;8.60;92.70;;;;;;5029516;28;20375;-76
2021/05/26 03:35:23;;;;;;;14.43;3.55;;;8.60;92.80;;;;;;5028005;28;20815;-76
2021/05/26 03:37:49;;;;;;;12.63;4.07;;;8.60;92.60;;;;;;5028952;28;20419;-76
2021/05/26 03:40:17;;;;;;;15.77;3.83;;;8.60;92.90;;;;;;5027983;28;20436;-76
2021/05/26 03:42:43;;;;;;;14.63;4.15;;;8.60;92.80;;;;;;5028260;28;20387;-76
2021/05/26 03:45:10;;;;;;;15.55;4.32;;;8.60;93.00;;;;;;5027875;28;20387;-76
2021/05/26 03:47:36;;;;;;;16.67;4.00;;;8.60;93.10;;;;;;5028670;28;20406;-76
2021/05/26 03:50:03;;;;;;;14.98;4.22;;;8.60;92.90;;;;;;5029425;28;20411;-76
2021/05/26 03:52:29;;;;;;;14.07;4.03;;;8.60;93.20;;;;;;5029118;28;20428;-76
2021/05/26 03:54:55;;;;;;;12.98;4.22;;;8.60;92.90;;;;;;5028576;28;20993;-76
2021/05/26 03:57:20;;;;;;;18.75;4.32;;;8.60;92.90;;;;;;5028268;28;20387;-76
2021/05/26 03:59:46;;;;;;;15.60;4.10;;;8.60;92.80;;;;;;5029281;28;20391;-76
2021/05/26 04:02:12;;;;;;;15.80;4.13;;;8.60;92.30;;;;;;5028920;28;20375;-76
2021/05/26 04:04:41;;;;;;;16.08;3.95;;;8.60;92.50;;;;;;5029187;28;20466;-75
2021/05/26 04:07:06;;;;;;;17.17;3.88;;;8.60;92.70;;;;;;5029240;28;20407;-76
2021/05/26 04:09:32;;;;;;;9.52;3.40;;;8.60;92.80;;;;;;5029203;28;20384;-75
2021/05/26 04:11:57;;;;;;;15.70;5.10;;;8.70;93.10;;;;;;5028807;28;20411;-76
2021/05/26 04:14:23;;;;;;;14.30;4.13;;;8.70;92.30;;;;;;5029190;28;20851;-76
2021/05/26 04:16:48;;;;;;;12.43;4.37;;;8.70;92.90;;;;;;5028491;28;20466;-76
2021/05/26 04:19:14;;;;;;;14.47;3.47;;;8.70;92.40;;;;;;5028806;28;20832;-76
2021/05/26 04:21:39;;;;;;;13.40;4.10;;;8.70;92.60;;;;;;5028865;28;20486;-75
2021/05/26 04:24:05;;;;;;;16.58;3.50;;;8.60;92.70;;;;;;5026377;28;20895;-76
2021/05/26 04:26:31;;;;;;;11.07;3.67;;;8.60;92.70;;;;;;5028583;28;20371;-77
2021/05/26 04:28:56;;;;;;;11.52;3.33;;;8.70;92.60;;;;;;5028385;28;20409;-76
2021/05/26 04:31:22;;;;;;;18.60;4.20;;;8.70;92.70;;;;;;5027518;28;20392;-76
2021/05/26 04:33:47;;;;;;;12.27;3.50;;;8.70;92.90;;;;;;5027093;28;20711;-76
2021/05/26 04:36:13;;;;;;;11.90;3.60;;;8.70;92.50;;;;;;5027504;28;20383;-76
2021/05/26 04:38:39;;;;;;;10.20;3.43;;;8.80;92.40;;;;;;5027238;28;20391;-76
2021/05/26 04:41:05;;;;;;;10.38;3.17;;;8.80;92.40;;;;;;5027475;28;20929;-76
2021/05/26 04:43:33;;;;;;;10.93;2.95;;;8.70;92.60;;;;;;5025952;28;20383;-76
2021/05/26 04:46:00;;;;;;;12.70;3.57;;;8.80;92.50;;;;;;5027070;28;20456;-75
2021/05/26 04:48:29;;;;;;;14.70;3.25;;;8.80;92.20;;;;;;5028298;28;20415;-75
2021/05/26 04:50:55;;;;;;;8.90;2.70;;;8.70;92.40;;;;;;5028271;28;20408;-76
2021/05/26 04:53:21;;;;;;;15.05;3.30;;;8.80;92.00;;;;;;5027465;28;20430;-75
2021/05/26 04:55:47;;;;;;;10.77;3.30;;;8.80;92.20;;;;;;5028270;28;20388;-75
2021/05/26 04:58:12;;;;;;;9.57;3.33;;;8.70;91.90;;;;;;5028154;28;20490;-76
2021/05/26 05:00:38;;;;;;;7.53;2.50;;;8.70;92.10;;;;;;5028746;28;20510;-76
2021/05/26 05:03:04;;;;;;;10.38;3.30;;;8.70;91.70;;;;;;5027213;28;20419;-76
2021/05/26 05:05:33;;;;;;;9.35;3.10;;;8.70;92.10;;;;;;5028037;28;20383;-76
2021/05/26 05:08:03;;;;;;;7.63;2.35;;;8.70;92.10;;;;;;5028078;28;20406;-76
2021/05/26 05:10:29;;;;;;;8.75;2.42;;;8.70;92.10;;;;;;5026413;28;20388;-76
2021/05/26 05:12:54;;;;;;;10.88;2.40;;;8.70;91.90;;;;;;5027609;28;20379;-76
2021/05/26 05:15:20;;;;;;;6.85;2.30;;;8.70;92.10;;;;;;5028348;28;20399;-76
2021/05/26 05:17:46;;;;;;;7.07;2.40;;;8.70;91.80;;;;;;5026113;28;20439;-75
2021/05/26 05:20:15;;;;;;;8.18;2.55;;;8.60;92.40;;;;;;5028084;28;20518;-75
2021/05/26 05:22:40;;;;;;;7.70;2.83;;;8.60;91.90;;;;;;5027738;28;20789;-76
2021/05/26 05:25:06;;;;;;;9.60;3.28;;;8.70;92.20;;;;;;5026864;28;20380;-76
2021/05/26 05:27:32;;;;;;;5.68;2.45;;;8.70;91.80;;;;;;5025978;28;20429;-76
2021/05/26 05:29:57;;;;;;;8.23;2.90;;;8.70;92.20;;;;;;5027957;28;20384;-76
2021/05/26 05:32:23;;;;;;;10.38;2.72;;;8.70;92.30;;;;;;5027579;28;20465;-75
2021/05/26 05:34:49;;;;;;;9.93;2.92;;;8.70;92.20;;;;;;5027944;28;20831;-75
2021/05/26 05:37:14;;;;;;;11.10;2.88;;;8.80;92.30;;;;;;5025828;28;20420;-75
2021/05/26 05:39:40;;;;;;;9.45;3.15;;;8.80;92.50;;;;;;5026566;28;20391;-76
2021/05/26 05:42:06;;;;;;;7.37;3.40;;;8.80;92.40;;;;;;5025820;28;20471;-76
2021/05/26 05:44:31;;;;;;;7.10;3.17;;;8.80;92.10;;;;;;5027579;28;20768;-76
2021/05/26 05:46:57;;;;;;;14.37;3.30;;;8.90;92.40;;;;;;5027197;28;20384;-76
2021/05/26 05:49:22;;;;;;;7.37;2.97;;;8.80;92.10;;;;;;5027248;28;20410;-76
2021/05/26 05:51:48;;;;;;;11.40;3.13;;;8.90;92.50;;;;;;5027509;28;20962;-76
2021/05/26 05:54:13;;;;;;;9.40;2.80;;;8.90;93.00;;;;;;5027632;28;20379;-76
2021/05/26 05:56:39;;;;;;;6.07;2.50;;;8.90;92.50;;;;;;5027267;28;20533;-76
2021/05/26 05:59:04;;;;;;;4.67;2.60;;;8.90;92.40;;;;;;5027718;28;20789;-76
2021/05/26 06:01:31;;;;;;;9.00;2.67;;;8.90;92.20;;;;;;5027517;28;20815;-76
2021/05/26 06:03:57;;;;;;;9.10;3.08;;;9.00;92.30;;;;;;5025714;28;20383;-76
2021/05/26 06:06:22;;;;;;;8.47;2.50;;;8.90;92.30;;;;;;5027358;28;20375;-77
2021/05/26 06:08:48;;;;;;;8.70;2.93;;;8.90;91.80;;;;;;5025446;28;20751;-76
2021/05/26 06:11:13;;;;;;;6.43;2.60;;;9.00;92.10;;;;;;5027758;28;20467;-76
2021/05/26 06:13:39;;;;;;;8.68;2.63;;;8.90;92.40;;;;;;5025522;28;20502;-76
2021/05/26 06:16:04;;;;;;;8.25;3.10;;;9.10;92.70;;;;;;5027076;28;20384;-76
2021/05/26 06:18:30;;;;;;;6.25;2.53;;;9.10;91.90;;;;;;5024776;28;20794;-75
2021/05/26 06:20:55;;;;;;;6.37;2.40;;;9.10;92.00;;;;;;5027349;28;20436;-76
2021/05/26 06:23:21;;;;;;;7.10;2.30;;;9.10;91.80;;;;;;5115494;27;20731;-76
2021/05/26 06:25:46;;;;;;;5.73;2.00;;;9.20;91.60;;;;;;5027649;28;20479;-76
2021/05/26 06:28:12;;;;;;;9.10;2.22;;;9.10;90.30;;;;;;5027678;28;20438;-76
2021/05/26 06:30:37;;;;;;;9.90;2.37;;;9.10;91.20;;;;;;5027242;28;20431;-75
2021/05/26 06:33:03;;;;;;;6.37;2.50;;;9.20;91.00;;;;;;5029378;28;20802;-76
2021/05/26 06:35:29;;;;;;;6.13;2.00;;;9.20;89.70;;;;;;5028266;28;20442;-76
2021/05/26 06:37:54;;;;;;;7.33;2.37;;;9.30;90.20;;;;;;5029311;28;20383;-76
2021/05/26 06:40:20;;;;;;;7.60;2.10;;;9.30;89.80;;;;;;5029012;28;20460;-76
2021/05/26 06:42:45;;;;;;;6.60;2.20;;;9.40;89.20;;;;;;5028233;28;20466;-75
2021/05/26 06:45:12;;;;;;;3.05;1.70;;;9.40;89.00;;;;;;5027883;28;20379;-77
2021/05/26 06:47:37;;;;;;;4.30;2.00;;;9.40;89.00;;;;;;5027285;28;20407;-77
2021/05/26 06:50:03;;;;;;;9.37;2.43;;;9.40;87.90;;;;;;5027490;28;20384;-76
2021/05/26 06:52:31;;;;;;;7.10;2.05;;;9.50;88.60;;;;;;5026641;28;20387;-76
2021/05/26 06:54:56;;;;;;;6.22;1.95;;;9.50;88.70;;;;;;5027139;28;20399;-76
2021/05/26 06:57:22;;;;;;;6.43;1.90;;;9.50;88.70;;;;;;5028445;28;20475;-76
2021/05/26 06:59:47;;;;;;;4.03;1.70;;;9.40;88.30;;;;;;5029024;28;20474;-76
2021/05/26 07:02:13;;;;;;;5.20;2.00;;;9.50;88.30;;;;;;5027472;28;20895;-76
2021/05/26 07:04:38;;;;;;;4.15;1.60;;;9.60;88.70;;;;;;5029544;28;20363;-76
2021/05/26 07:07:04;;;;;;;4.63;2.00;;;9.60;88.70;;;;;;5049898;27;20381;-76
2021/05/26 07:09:29;;;;;;;6.65;2.20;;;9.60;87.40;;;;;;5132334;27;20510;-76
2021/05/26 07:11:55;;;;;;;5.60;1.80;;;9.50;88.30;;;;;;5132047;27;20379;-76
2021/05/26 07:14:21;;;;;;;6.30;2.33;;;9.50;87.70;;;;;;5130708;27;20405;-77
2021/05/26 07:16:46;;;;;;;6.93;2.03;;;9.60;87.60;;;;;;5132770;27;20908;-76
2021/05/26 07:19:13;;;;;;;6.45;1.90;;;9.60;88.30;;;;;;5132685;27;20378;-76
2021/05/26 07:21:38;;;;;;;6.00;1.85;;;9.60;87.20;;;;;;5133166;27;20450;-77
2021/05/26 07:24:04;;;;;;;3.50;1.70;;;9.70;88.30;;;;;;5131312;27;20849;-79
2021/05/26 07:26:30;;;;;;;4.75;1.58;;;9.70;88.10;;;;;;5131570;27;20379;-76
2021/05/26 07:28:55;;;;;;;3.92;1.77;;;9.80;87.40;;;;;;5131176;27;20405;-76
2021/05/26 07:31:21;;;;;;;5.88;2.03;;;9.70;86.00;;;;;;5132244;27;20723;-76
2021/05/26 07:33:46;;;;;;;7.57;2.03;;;9.80;86.80;;;;;;5132667;27;20374;-77
2021/05/26 07:36:12;;;;;;;6.47;1.90;;;9.80;86.80;;;;;;5131571;27;20859;-76
2021/05/26 07:38:39;;;;;;;3.40;1.50;;;10.00;87.30;;;;;;5130787;27;20397;-77
2021/05/26 07:41:05;;;;;;;3.13;1.85;;;9.90;84.70;;;;;;5132609;27;20371;-76
2021/05/26 07:43:33;;;;;;;5.55;1.88;;;9.90;85.50;;;;;;5132417;27;20398;-77
2021/05/26 07:45:59;;;;;;;4.60;1.58;;;10.10;86.60;;;;;;5131999;27;20404;-76
2021/05/26 07:48:25;;;;;;;5.63;1.48;;;10.10;83.90;;;;;;5132176;27;20455;-77
2021/05/26 07:50:50;;;;;;;6.27;1.60;;;10.20;83.60;;;;;;5130870;27;20383;-76
2021/05/26 07:53:16;;;;;;;3.43;1.33;;;10.30;84.20;;;;;;5131054;27;20371;-76
2021/05/26 07:55:41;;;;;;;2.95;1.30;;;10.40;83.00;;;;;;5132069;27;20912;-77
2021/05/26 07:58:07;;;;;;;3.58;1.30;;;10.40;83.80;;;;;;5131661;27;20374;-77
2021/05/26 08:00:33;;;;;;;4.23;1.00;;;10.30;80.90;;;;;;5132135;27;20859;-77
2021/05/26 08:02:58;;;;;;;2.70;1.40;;;10.40;82.90;;;;;;5125680;27;20462;-77
2021/05/26 08:05:24;;;;;;;3.40;1.20;;;10.30;81.40;;;;;;5047076;27;20395;-76
2021/05/26 08:07:50;;;;;;;3.67;1.60;;;10.40;82.60;;;;;;5027514;28;20582;-76
2021/05/26 08:10:16;;;;;;;3.00;1.47;;;10.40;82.60;;;;;;5026179;28;20414;-76
2021/05/26 08:12:41;;;;;;;4.87;1.47;;;10.20;83.50;;;;;;5026735;28;20426;-76
2021/05/26 08:15:08;;;;;;;3.93;1.40;;;10.20;83.80;;;;;;5026029;28;20427;-76
2021/05/26 08:17:34;;;;;;;3.22;1.80;;;10.40;82.90;;;;;;5026200;28;20391;-76
2021/05/26 08:20:01;;;;;;;2.80;1.30;;;10.70;83.70;;;;;;5027158;28;20736;-77
2021/05/26 08:22:28;;;;;;;3.45;1.38;;;10.90;80.60;;;;;;5026708;28;20410;-77
2021/05/26 08:24:53;;;;;;;3.30;1.20;;;10.90;79.30;;;;;;5026445;28;20846;-78
2021/05/26 08:27:19;;;;;;;1.70;1.00;;;10.90;79.80;;;;;;5027176;28;20443;-77
2021/05/26 08:29:44;;;;;;;3.03;1.70;;;11.00;81.00;;;;;;5026679;28;20452;-76
2021/05/26 08:32:10;;;;;;;3.55;1.20;;;10.80;77.50;;;;;;5026003;28;20413;-76
2021/05/26 08:34:35;;;;;;;2.37;1.20;;;10.50;79.90;;;;;;5026260;28;20415;-76
2021/05/26 08:37:01;;;;;;;6.27;1.43;;;10.50;79.50;;;;;;5027165;28;20517;-76
2021/05/26 08:39:26;;;;;;;1.47;1.03;;;10.70;81.50;;;;;;5027794;28;20414;-76
2021/05/26 08:41:53;;;;;;;6.78;1.30;;;10.80;80.80;;;;;;5026872;28;20391;-76
2021/05/26 08:44:19;;;;;;;2.38;1.20;;;10.70;80.30;;;;;;5026153;28;20770;-77
2021/05/26 08:46:51;;;;;;;3.45;1.50;;;10.60;79.80;;;;;;5025257;28;20930;-76
2021/05/26 08:49:18;;;;;;;1.70;1.20;;;10.50;79.20;;;;;;5026075;28;20498;-77
2021/05/26 08:51:44;;;;;;;2.07;1.30;;;10.70;80.20;;;;;;5026806;28;20487;-77
2021/05/26 08:54:09;;;;;;;3.77;1.30;;;11.50;78.20;;;;;;5026861;28;20435;-76
2021/05/26 08:56:35;;;;;;;4.90;1.30;;;11.80;76.60;;;;;;5026767;28;20380;-76
2021/05/26 08:59:01;;;;;;;2.70;1.30;;;11.80;76.60;;;;;;5111541;27;20946;-77
2021/05/26 09:01:27;;;;;;;3.10;1.30;;;11.90;76.50;;;;;;5027021;28;20380;-77
2021/05/26 09:03:54;;;;;;;3.30;1.38;;;11.40;76.20;;;;;;5026446;28;20799;-76
2021/05/26 09:06:20;;;;;;;4.50;1.38;;;11.30;78.10;;;;;;5026555;28;20384;-77
2021/05/26 09:08:50;;;;;;;3.90;1.38;;;11.20;77.50;;;;;;5026276;28;20414;-76
2021/05/26 09:11:28;;;;;;;3.10;1.40;;;11.40;76.90;;;;;;5026005;28;20379;-77
2021/05/26 09:13:54;;;;;;;1.98;1.38;;;11.90;77.80;;;;;;5025404;28;20399;-76
2021/05/26 09:16:22;;;;;;;3.10;1.73;;;12.40;74.90;;;;;;5111814;27;20396;-77
2021/05/26 09:18:57;;;;;;;2.83;1.23;;;12.70;72.20;;;;;;5025909;28;21501;-77
2021/05/26 09:21:42;;;;;;;2.47;1.20;;;12.90;76.30;;;;;;5024943;28;20391;-76
2021/05/26 09:24:27;;;;;;;2.97;1.20;;;13.20;71.00;;;;;;5026059;28;20956;-77
2021/05/26 09:27:01;;;;;;;2.92;1.40;;;13.90;76.20;;;;;;5021911;28;20422;-76
2021/05/26 09:29:33;;;;;;;3.60;1.02;;;13.20;71.40;;;;;;5111061;27;20400;-76
2021/05/26 09:32:21;;;;;;;1.77;1.10;;;12.90;71.90;;;;;;5024788;28;20397;-76
2021/05/26 09:34:51;;;;;;;4.97;1.30;;;12.70;72.80;;;;;;5025960;28;20419;-76
2021/05/26 09:37:28;;;;;;;4.20;1.70;;;12.40;76.10;;;;;;5024774;28;20859;-77
2021/05/26 09:40:02;;;;;;;4.05;1.52;;;12.20;75.00;;;;;;5024446;28;20888;-76
2021/05/26 09:42:40;;;;;;;2.67;1.70;;;11.90;74.10;;;;;;5027239;28;20379;-77
2021/05/26 09:45:20;;;;;;;5.10;1.48;;;12.70;74.00;;;;;;5026051;28;20829;-76
2021/05/26 09:47:50;;;;;;;2.55;1.30;;;13.40;73.00;;;;;;5024079;28;20920;-77
2021/05/26 09:50:25;;;;;;;2.67;1.35;;;13.00;70.30;;;;;;5025623;28;20391;-76
2021/05/26 09:53:04;;;;;;;4.82;1.60;;;12.70;70.30;;;;;;5025732;28;20375;-76
2021/05/26 09:55:31;;;;;;;3.38;1.30;;;12.40;71.90;;;;;;5026457;28;20386;-77
2021/05/26 09:57:58;;;;;;;1.50;1.13;;;12.40;71.60;;;;;;5026080;28;20529;-76
2021/05/26 10:00:25;;;;;;;3.20;1.58;;;12.10;72.50;;;;;;5026156;28;20384;-77
2021/05/26 10:02:51;;;;;;;3.78;1.20;;;12.60;73.00;;;;;;5022555;28;20796;-76
2021/05/26 10:05:19;;;;;;;2.07;1.40;;;12.80;71.50;;;;;;5026443;28;20847;-76
2021/05/26 10:08:12;;;;;;;2.50;1.67;;;13.40;76.10;;;;;;5025249;28;20411;-76
2021/05/26 10:10:41;;;;;;;2.53;1.23;;;13.80;67.90;;;;;;5025295;28;21015;-76
2021/05/26 10:13:11;;;;;;;1.63;1.10;;;14.10;67.60;;;;;;5025782;28;20931;-77
2021/05/26 10:15:38;;;;;;;1.92;0.90;;;13.20;71.30;;;;;;5025708;28;20709;-76
2021/05/26 10:18:04;;;;;;;1.30;1.20;;;12.80;70.50;;;;;;5024763;28;20885;-76
2021/05/26 10:20:33;;;;;;;1.60;1.02;;;12.90;74.00;;;;;;5025494;28;20387;-76
2021/05/26 10:23:01;;;;;;;1.73;1.10;;;12.60;69.90;;;;;;5024366;28;20934;-76
2021/05/26 10:25:27;;;;;;;2.00;1.02;;;12.90;75.60;;;;;;5026022;28;20391;-76
2021/05/26 10:27:57;;;;;;;3.10;1.05;;;12.90;71.10;;;;;;5031093;28;20781;-80
2021/05/26 10:30:26;;;;;;;2.90;0.80;;;13.20;69.90;;;;;;5045005;28;20430;-77
2021/05/26 10:32:59;;;;;;;0.95;0.77;;;13.70;68.90;;;;;;5044522;28;20472;-76
2021/05/26 10:35:27;;;;;;;1.50;0.70;;;13.80;70.50;;;;;;5044345;28;20402;-76
2021/05/26 10:38:04;;;;;;;3.00;0.70;;;13.60;71.20;;;;;;5044750;28;20386;-76
2021/05/26 10:40:31;;;;;;;1.10;0.80;;;14.10;70.00;;;;;;5045699;28;20400;-77
2021/05/26 10:43:15;;;;;;;2.90;0.80;;;13.90;69.00;;;;;;5043876;28;20480;-77
2021/05/26 10:45:41;;;;;;;2.67;0.80;;;13.80;68.90;;;;;;5044420;28;20390;-76
2021/05/26 10:48:07;;;;;;;0.80;0.63;;;14.60;67.60;;;;;;5045260;28;20504;-77
2021/05/26 10:50:48;;;;;;;1.87;0.90;;;14.60;66.90;;;;;;5043764;28;20528;-77
2021/05/26 10:53:18;;;;;;;3.08;1.02;;;14.60;67.60;;;;;;5037431;28;20746;-76
2021/05/26 10:55:51;;;;;;;3.17;0.90;;;14.70;66.90;;;;;;5077378;28;20516;-76
2021/05/26 10:58:31;;;;;;;3.08;1.20;;;15.60;67.40;;;;;;5005734;28;20381;-75
2021/05/26 11:00:56;;;;;;;2.20;0.82;;;14.50;64.90;;;;;;5006014;28;20381;-78
2021/05/26 11:03:28;;;;;;;3.70;0.80;;;13.80;65.20;;;;;;5004865;28;20405;-77
2021/05/26 11:05:56;;;;;;;2.08;0.80;;;13.90;70.00;;;;;;5015718;28;20392;-78
2021/05/26 11:08:51;;;;;;;1.35;0.80;;;14.00;67.40;;;;;;5008747;28;20409;-78
2021/05/26 11:11:33;;;;;;;1.00;0.70;;;14.80;69.30;;;;;;5009005;28;20733;-78
2021/05/26 11:14:09;;;;;;;1.38;0.68;;;15.00;66.00;;;;;;5008546;28;20401;-79
2021/05/26 11:16:58;;;;;;;1.33;0.68;;;15.30;60.90;;;;;;5009260;28;20393;-78
2021/05/26 11:19:26;;;;;;;1.13;0.60;;;14.80;62.60;;;;;;5006440;28;20401;-78
2021/05/26 11:22:05;;;;;;;1.50;0.70;;;13.90;64.10;;;;;;5009033;28;20425;-76
2021/05/26 11:24:35;;;;;;;0.73;0.60;;;14.50;65.80;;;;;;5009088;28;20396;-76
2021/05/26 11:27:21;;;;;;;1.60;0.70;;;14.50;62.40;;;;;;5006317;28;20389;-78
2021/05/26 11:29:51;;;;;;;2.30;0.75;;;14.30;62.80;;;;;;5009019;28;20394;-77
2021/05/26 11:32:20;;;;;;;1.13;0.60;;;14.20;62.20;;;;;;5015032;28;20387;-78
2021/05/26 11:34:47;;;;;;;2.15;0.70;;;14.80;60.00;;;;;;5028096;28;20407;-78
2021/05/26 11:37:24;;;;;;;1.67;0.88;;;14.80;62.30;;;;;;5027258;28;20731;-78
2021/05/26 11:39:49;;;;;;;3.95;0.80;;;14.50;65.30;;;;;;5025297;28;20852;-77
2021/05/26 11:42:17;;;;;;;2.80;0.80;;;15.30;65.70;;;;;;5113440;27;20388;-78
2021/05/26 11:44:52;;;;;;;2.40;0.70;;;15.00;62.60;;;;;;5027117;28;20851;-77
2021/05/26 11:47:28;;;;;;;1.70;0.90;;;15.50;60.20;;;;;;5027121;28;20423;-77
2021/05/26 11:49:54;;;;;;;2.15;0.65;;;14.30;64.80;;;;;;5025945;28;20413;-78
2021/05/26 11:52:19;;;;;;;2.70;0.63;;;14.90;66.50;;;;;;5028476;28;20699;-78
2021/05/26 11:55:01;;;;;;;1.33;0.90;;;15.60;64.80;;;;;;5026611;28;20399;-78
2021/05/26 11:57:41;;;;;;;2.88;0.88;;;14.80;61.90;;;;;;5027813;28;20390;-78
2021/05/26 12:00:20;;;;;;;1.92;0.73;;;15.30;61.90;;;;;;5027912;28;20387;-77
2021/05/26 12:02:54;;;;;;;1.27;0.80;;;15.10;60.10;;;;;;5027834;28;20391;-78
2021/05/26 12:05:47;;;;;;;0.80;0.80;;;14.90;66.10;;;;;;5026854;28;20391;-79
2021/05/26 12:08:30;;;;;;;1.58;0.80;;;15.30;61.90;;;;;;5027232;28;20423;-78
2021/05/26 12:11:01;;;;;;;6.43;0.80;;;15.10;64.30;;;;;;5112956;27;20387;-78
2021/05/26 12:13:31;;;;;;;1.70;0.70;;;14.60;66.80;;;;;;5027000;28;20426;-77
2021/05/26 12:16:01;;;;;;;2.38;0.80;;;15.00;66.00;;;;;;5026566;28;20761;-78
2021/05/26 12:18:27;;;;;;;2.90;0.88;;;15.90;65.80;;;;;;5112770;27;20387;-77
2021/05/26 12:20:54;;;;;;;0.88;0.75;;;15.60;63.50;;;;;;5025974;28;20388;-77
2021/05/26 12:23:38;;;;;;;2.47;1.27;;;14.80;61.90;;;;;;5026384;28;20427;-79
2021/05/26 12:26:20;;;;;;;1.95;1.00;;;14.50;64.10;;;;;;5026385;28;20882;-78
2021/05/26 12:28:45;;;;;;;5.13;1.00;;;14.40;64.10;;;;;;5026482;28;20898;-77
2021/05/26 12:31:16;;;;;;;3.03;1.10;;;14.30;65.60;;;;;;5026081;28;20494;-77
2021/05/26 12:33:52;;;;;;;1.58;1.00;;;14.30;65.90;;;;;;5027751;28;20855;-77
2021/05/26 12:36:21;;;;;;;2.03;0.90;;;14.10;63.80;;;;;;5027378;28;20376;-77
2021/05/26 12:38:47;;;;;;;5.32;0.82;;;14.40;64.00;;;;;;5026806;28;20387;-78
2021/05/26 12:41:33;;;;;;;2.78;0.90;;;15.40;62.30;;;;;;5026674;28;20448;-79
2021/05/26 12:44:07;;;;;;;2.40;0.90;;;15.50;59.80;;;;;;5027638;28;20402;-78
2021/05/26 12:46:44;;;;;;;2.30;1.00;;;15.00;63.60;;;;;;5024397;28;20475;-77
2021/05/26 12:49:36;;;;;;;4.25;1.00;;;15.80;62.40;;;;;;5026424;28;20905;-78
2021/05/26 12:52:22;;;;;;;1.42;1.00;;;15.40;63.90;;;;;;5027306;28;20383;-78
2021/05/26 12:54:49;;;;;;;1.30;1.00;;;15.00;60.70;;;;;;5026862;28;20490;-78